PDT,Max TemperatureF,Mean TemperatureF,Min TemperatureF,Max Dew PointF,MeanDew PointF,Min DewpointF,Max Humidity, Mean Humidity, Min Humidity, Max Sea Level PressureIn, Mean Sea Level PressureIn, Min Sea Level PressureIn, Max VisibilityMiles, Mean VisibilityMiles, Min VisibilityMiles, Max Wind SpeedMPH, Mean Wind SpeedMPH, Max Gust SpeedMPH,PrecipitationIn, CloudCover, Events, WindDirDegrees
2013-8-1,75,66,57,57,49,44,84,61,38,29.96,29.90,29.87,10,9,2,16,3,21,0.25,3,Rain,243
2013-8-2,63,60,57,57,55,53,90,81,72,30.10,30.01,29.91,10,7,2,13,4,15,0.82,8,Rain,211
2013-8-3,77,68,58,56,54,51,87,65,43,30.13,30.08,30.02,10,10,7,9,2,15,0.01,6,Rain,72
2013-8-4,85,71,56,56,52,47,93,60,27,30.06,30.00,29.92,10,10,4,8,1,10,0.00,1,,32
2013-8-5,89,74,58,55,51,45,86,54,22,29.98,29.92,29.86,10,10,10,12,2,17,0.00,1,,353
2013-8-6,91,75,58,56,52,45,86,53,20,29.97,29.91,29.84,10,10,9,9,2,14,0.00,1,,45
2013-8-7,93,76,59,55,46,36,78,46,14,29.91,29.86,29.81,10,10,10,14,3,20,0.00,0,,59
2013-8-8,93,75,56,52,48,38,77,46,15,29.94,29.88,29.83,10,10,9,7,2,12,0.00,0,,54
2013-8-9,94,77,60,61,53,51,78,51,24,29.88,29.83,29.76,10,9,2,22,4,30,0.31,1,Rain-Thunderstorm,70
2013-8-10,92,78,63,60,54,48,78,51,23,29.97,29.88,29.81,10,10,10,16,3,23,0.07,2,Rain-Thunderstorm,21
2013-8-11,90,78,65,55,52,45,63,46,29,29.96,29.92,29.85,10,10,10,14,4,17,T,0,Thunderstorm,283
2013-8-12,91,76,60,57,52,48,84,54,23,29.97,29.93,29.87,10,10,9,8,1,12,T,0,,9
2013-8-13,91,76,61,56,50,42,68,44,19,30.04,29.98,29.92,10,10,10,8,2,13,T,0,,53
2013-8-14,94,76,57,56,51,39,80,48,15,29.96,29.89,29.80,10,10,10,10,2,14,0.00,0,,84
2013-8-15,92,76,60,53,48,43,72,45,18,29.94,29.87,29.82,10,10,10,10,2,14,0.00,0,,25
2013-8-16,88,75,61,53,48,44,72,47,22,29.96,29.93,29.89,10,10,10,14,4,20,0.00,0,,267
2013-8-17,90,75,60,54,50,45,72,48,23,30.00,29.95,29.88,10,10,10,20,6,26,0.00,1,,252
2013-8-18,87,73,59,51,45,38,72,45,18,30.06,29.99,29.93,10,10,10,17,6,24,0.00,0,,232
2013-8-19,87,73,59,46,44,41,56,39,21,30.00,29.94,29.88,10,10,10,22,7,28,0.00,0,,236
2013-8-20,85,70,55,47,37,27,56,34,12,30.03,29.98,29.92,10,10,10,14,4,21,0.00,0,,258
2013-8-21,89,69,49,44,39,35,71,44,16,30.09,30.01,29.95,10,10,8,9,2,14,0.00,0,,39
2013-8-22,92,73,53,47,41,7,71,39,6,29.96,29.87,29.76,10,10,8,15,2,20,0.00,0,,31
2013-8-23,84,73,61,53,49,46,56,42,28,29.82,29.78,29.74,10,10,10,16,5,23,0.00,3,,251
2013-8-24,85,71,56,52,48,42,77,50,23,29.86,29.79,29.71,10,10,8,10,3,13,T,1,,19
2013-8-25,86,73,60,56,53,47,84,57,29,29.92,29.86,29.74,10,9,2,29,3,41,0.25,4,Rain-Thunderstorm,352
2013-8-26,81,69,56,55,50,43,86,57,28,29.98,29.93,29.86,10,10,10,13,3,17,0.00,2,,202
2013-8-27,86,70,54,52,48,43,77,50,23,29.99,29.89,29.79,10,10,6,7,2,12,0.00,0,,37
2013-8-28,87,72,56,54,49,44,77,50,23,29.88,29.83,29.77,10,10,8,16,3,20,0.00,0,,108
2013-8-29,86,71,56,57,50,46,77,52,27,30.00,29.91,29.85,10,10,10,18,2,24,T,1,,276
2013-8-30,83,70,57,53,47,40,67,45,23,30.10,30.04,29.99,10,10,10,21,5,29,0.01,3,,265
2013-8-31,87,69,50,50,42,36,80,49,17,30.10,30.01,29.90,10,10,9,8,2,12,0.00,0,,24